createdAt,value
2019-05-30T00:00:16.014Z,14.80
2019-05-30T00:02:35.677Z,14.80
2019-05-30T00:05:04.888Z,14.70
2019-05-30T00:07:34.263Z,14.60
2019-05-30T00:10:04.991Z,14.60
2019-05-30T00:12:34.476Z,14.50
2019-05-30T00:15:05.871Z,14.40
2019-05-30T00:17:34.782Z,14.40
2019-05-30T00:20:05.812Z,14.40
2019-05-30T00:22:35.445Z,14.40
2019-05-30T00:25:06.262Z,14.40
2019-05-30T00:27:35.673Z,14.40
2019-05-30T00:30:05.149Z,14.40
2019-05-30T00:32:34.359Z,14.40
2019-05-30T00:35:03.878Z,14.40
2019-05-30T00:37:33.141Z,14.40
2019-05-30T00:40:02.535Z,14.30
2019-05-30T00:42:31.722Z,14.30
2019-05-30T00:45:08.581Z,14.20
2019-05-30T00:47:34.116Z,14.30
2019-05-30T00:50:04.433Z,14.20
2019-05-30T00:52:33.819Z,14.20
2019-05-30T00:55:04.672Z,14.20
2019-05-30T00:57:34.230Z,14.10
2019-05-30T01:00:05.011Z,14.20
2019-05-30T01:02:34.480Z,14.20
2019-05-30T01:05:05.125Z,14.20
2019-05-30T01:07:34.531Z,14.30
2019-05-30T01:10:05.014Z,14.30
2019-05-30T01:12:35.225Z,14.20
2019-05-30T01:15:05.200Z,14.30
2019-05-30T01:17:34.543Z,14.30
2019-05-30T01:20:05.224Z,14.20
2019-05-30T01:22:34.727Z,14.20
2019-05-30T01:25:05.913Z,14.20
2019-05-30T01:27:35.251Z,14.20
2019-05-30T01:30:05.727Z,14.30
2019-05-30T01:32:35.432Z,14.30
2019-05-30T01:35:05.806Z,14.30
2019-05-30T01:37:35.314Z,14.30
2019-05-30T01:40:06.469Z,14.30
2019-05-30T01:42:35.794Z,14.30
2019-05-30T01:45:06.263Z,14.30
2019-05-30T01:47:35.797Z,14.30
2019-05-30T01:50:06.500Z,14.30
2019-05-30T01:52:35.856Z,14.30
2019-05-30T01:55:06.644Z,14.30
2019-05-30T01:57:36.010Z,14.40
2019-05-30T02:00:19.900Z,14.30
2019-05-30T02:02:39.395Z,14.30
2019-05-30T02:05:09.465Z,14.40
2019-05-30T02:07:39.949Z,14.30
2019-05-30T02:10:10.048Z,14.30
2019-05-30T02:12:39.753Z,14.40
2019-05-30T02:15:16.254Z,14.30
2019-05-30T02:17:45.499Z,14.30
2019-05-30T02:20:14.743Z,14.40
2019-05-30T02:22:43.934Z,14.40
2019-05-30T02:25:13.863Z,14.40
2019-05-30T02:27:43.077Z,14.40
2019-05-30T02:30:14.893Z,14.40
2019-05-30T02:32:43.655Z,14.50
2019-05-30T02:35:15.962Z,14.40
2019-05-30T02:37:45.381Z,14.40
2019-05-30T02:40:15.778Z,14.40
2019-05-30T02:42:45.122Z,14.40
2019-05-30T02:45:14.369Z,14.40
2019-05-30T02:47:43.795Z,14.40
2019-05-30T02:50:14.167Z,14.40
2019-05-30T02:52:43.776Z,14.40
2019-05-30T02:55:13.640Z,14.40
2019-05-30T02:57:43.457Z,14.40
2019-05-30T03:00:17.080Z,14.40
2019-05-30T03:02:43.715Z,14.40
2019-05-30T03:05:15.118Z,14.40
2019-05-30T03:07:44.652Z,14.40
2019-05-30T03:10:15.197Z,14.40
2019-05-30T03:12:44.903Z,14.40
2019-05-30T03:15:15.482Z,14.30
2019-05-30T03:17:45.263Z,14.40
2019-05-30T03:20:22.201Z,14.40
2019-05-30T03:22:45.532Z,14.40
2019-05-30T03:25:16.117Z,14.50
2019-05-30T03:27:45.829Z,14.40
2019-05-30T03:30:25.607Z,14.50
2019-05-30T03:33:05.583Z,14.40
2019-05-30T03:35:26.800Z,14.50
2019-05-30T03:37:48.228Z,14.40
2019-05-30T03:40:18.474Z,14.40
2019-05-30T03:42:48.543Z,14.40
2019-05-30T03:45:21.175Z,14.40
2019-05-30T03:47:53.020Z,14.40
2019-05-30T03:50:22.365Z,14.50
2019-05-30T03:52:51.596Z,14.50
2019-05-30T03:55:20.904Z,14.50
2019-05-30T03:57:56.958Z,14.50
2019-05-30T04:00:34.147Z,14.50
2019-05-30T04:03:39.682Z,14.50
2019-05-30T04:06:16.593Z,14.50
2019-05-30T04:08:47.382Z,14.50
2019-05-30T04:11:19.770Z,14.50
2019-05-30T04:13:50.468Z,14.50
2019-05-30T04:16:19.915Z,14.50
2019-05-30T04:18:49.286Z,14.60
2019-05-30T04:21:21.493Z,14.60
2019-05-30T04:23:49.586Z,14.60
2019-05-30T04:26:18.927Z,14.60
2019-05-30T04:28:48.215Z,14.60
2019-05-30T04:31:19.156Z,14.60
2019-05-30T04:33:48.401Z,14.60
2019-05-30T04:36:19.099Z,14.60
2019-05-30T04:38:48.828Z,14.60
2019-05-30T04:41:19.215Z,14.70
2019-05-30T04:43:49.029Z,14.70
2019-05-30T04:46:19.573Z,14.70
2019-05-30T04:48:49.111Z,14.70
2019-05-30T04:51:20.268Z,14.70
2019-05-30T04:53:49.361Z,14.60
2019-05-30T04:56:19.402Z,14.70
2019-05-30T04:58:49.502Z,14.70
2019-05-30T05:01:20.280Z,14.70
2019-05-30T05:03:49.747Z,14.80
2019-05-30T05:06:19.902Z,14.80
2019-05-30T05:08:49.301Z,14.70
2019-05-30T05:11:22.535Z,14.80
2019-05-30T05:13:49.530Z,14.70
2019-05-30T05:16:25.878Z,14.70
2019-05-30T05:18:49.692Z,14.70
2019-05-30T05:21:19.020Z,14.80
2019-05-30T05:23:48.225Z,14.80
2019-05-30T05:26:17.480Z,14.80
2019-05-30T05:28:46.734Z,14.80
2019-05-30T05:31:16.471Z,14.80
2019-05-30T05:33:56.377Z,14.80
2019-05-30T05:36:16.974Z,14.90
2019-05-30T05:38:46.375Z,14.90
2019-05-30T05:41:16.114Z,14.90
2019-05-30T05:43:45.486Z,14.90
2019-05-30T05:46:14.689Z,14.90
2019-05-30T05:48:43.982Z,14.90
2019-05-30T05:51:13.216Z,14.90
2019-05-30T05:53:42.413Z,14.90
2019-05-30T05:56:11.737Z,14.90
2019-05-30T05:58:40.933Z,15.00
2019-05-30T06:01:10.292Z,15.00
2019-05-30T06:03:39.759Z,15.00
2019-05-30T06:06:09.006Z,15.00
2019-05-30T06:08:38.424Z,15.00
2019-05-30T06:11:07.712Z,15.10
2019-05-30T06:13:37.195Z,15.10
2019-05-30T06:16:06.422Z,15.10
2019-05-30T06:18:35.634Z,15.20
2019-05-30T06:21:04.918Z,15.20
2019-05-30T06:23:34.398Z,15.30
2019-05-30T06:26:03.662Z,15.30
2019-05-30T06:28:32.892Z,15.30
2019-05-30T06:31:02.114Z,15.30
2019-05-30T06:33:31.323Z,15.30
2019-05-30T06:36:00.607Z,15.30
2019-05-30T06:38:29.916Z,15.40
2019-05-30T06:40:59.351Z,15.40
2019-05-30T06:43:28.661Z,15.40
2019-05-30T06:45:59.054Z,15.40
2019-05-30T06:48:28.805Z,15.40
2019-05-30T06:50:58.217Z,15.40
2019-05-30T06:53:27.765Z,15.40
2019-05-30T06:55:57.057Z,15.40
2019-05-30T06:58:41.439Z,15.40
2019-05-30T07:00:57.190Z,15.40
2019-05-30T07:03:26.550Z,15.40
2019-05-30T07:05:56.251Z,15.40
2019-05-30T07:08:26.743Z,15.40
2019-05-30T07:10:56.074Z,15.40
2019-05-30T07:13:29.269Z,15.40
2019-05-30T07:15:58.924Z,15.50
2019-05-30T07:18:31.898Z,15.50
2019-05-30T07:20:59.489Z,15.60
2019-05-30T07:23:30.011Z,15.50
2019-05-30T07:26:03.105Z,15.60
2019-05-30T07:28:32.475Z,15.50
2019-05-30T07:31:01.721Z,15.60
2019-05-30T07:33:32.887Z,15.60
2019-05-30T07:36:01.825Z,15.70
2019-05-30T07:38:31.040Z,15.70
2019-05-30T07:41:00.258Z,15.70
2019-05-30T07:43:30.754Z,15.70
2019-05-30T07:46:00.395Z,15.70
2019-05-30T07:48:32.362Z,15.80
2019-05-30T07:51:03.058Z,15.70
2019-05-30T07:53:32.813Z,15.80
2019-05-30T07:56:02.223Z,15.90
2019-05-30T07:58:31.467Z,15.80
2019-05-30T08:01:00.717Z,15.90
2019-05-30T08:03:30.489Z,15.90
2019-05-30T08:06:01.914Z,16.00
2019-05-30T08:08:33.953Z,16.10
2019-05-30T08:11:09.466Z,16.00
2019-05-30T08:13:35.257Z,16.00
2019-05-30T08:16:04.601Z,16.10
2019-05-30T08:18:33.818Z,16.10
2019-05-30T08:21:03.048Z,16.10
2019-05-30T08:23:32.702Z,16.10
2019-05-30T08:26:01.915Z,16.00
2019-05-30T08:28:32.153Z,16.10
2019-05-30T08:31:01.529Z,16.20
2019-05-30T08:33:31.405Z,16.20
2019-05-30T08:36:00.719Z,16.20
2019-05-30T08:38:30.999Z,16.20
2019-05-30T08:41:00.336Z,16.20
2019-05-30T08:43:29.558Z,16.20
2019-05-30T08:46:00.414Z,16.30
2019-05-30T08:48:29.844Z,16.40
2019-05-30T08:50:59.130Z,16.50
2019-05-30T08:53:28.411Z,16.50
2019-05-30T08:56:00.234Z,16.60
2019-05-30T08:58:30.400Z,16.60
2019-05-30T09:00:59.825Z,16.70
2019-05-30T09:03:29.042Z,16.80
2019-05-30T09:06:03.713Z,16.80
2019-05-30T09:08:29.263Z,16.90
2019-05-30T09:10:58.654Z,17.00
2019-05-30T09:13:28.128Z,17.00
2019-05-30T09:15:57.413Z,17.00
2019-05-30T09:18:26.849Z,17.00
2019-05-30T09:20:56.098Z,17.10
2019-05-30T09:23:25.614Z,17.10
2019-05-30T09:25:55.271Z,17.10
2019-05-30T09:28:24.950Z,17.10
2019-05-30T09:30:54.157Z,17.20
2019-05-30T09:33:28.662Z,17.20
2019-05-30T09:36:12.568Z,17.30
2019-05-30T09:38:31.413Z,17.40
2019-05-30T09:41:05.598Z,17.40
2019-05-30T09:43:42.886Z,17.50
2019-05-30T09:46:12.769Z,17.60
2019-05-30T09:48:43.186Z,17.70
2019-05-30T09:51:12.680Z,17.80
2019-05-30T09:53:43.605Z,17.90
2019-05-30T09:56:13.101Z,17.80
2019-05-30T09:58:43.606Z,17.80
2019-05-30T10:01:15.882Z,17.80
2019-05-30T10:03:46.394Z,17.80
2019-05-30T10:06:28.385Z,17.60
2019-05-30T10:08:47.828Z,17.60
2019-05-30T10:11:17.782Z,17.70
2019-05-30T10:13:47.954Z,17.70
2019-05-30T10:16:17.994Z,17.70
2019-05-30T10:18:47.711Z,17.70
2019-05-30T10:21:18.343Z,17.70
2019-05-30T10:23:51.972Z,17.70
2019-05-30T10:26:18.813Z,17.70
2019-05-30T10:28:49.528Z,17.90
2019-05-30T10:31:21.308Z,17.90
2019-05-30T10:33:51.089Z,17.80
2019-05-30T10:36:20.418Z,17.80
2019-05-30T10:38:50.449Z,17.70
2019-05-30T10:41:20.682Z,17.70
2019-05-30T10:43:51.129Z,17.70
2019-05-30T10:46:20.969Z,17.60
2019-05-30T10:48:50.926Z,17.50
2019-05-30T10:51:20.458Z,17.50
2019-05-30T10:53:50.855Z,17.40
2019-05-30T10:56:20.883Z,17.50
2019-05-30T10:58:50.772Z,17.50
2019-05-30T11:01:20.122Z,17.60
2019-05-30T11:03:50.386Z,17.80
2019-05-30T11:06:38.497Z,17.80
2019-05-30T11:09:07.881Z,17.80
2019-05-30T11:11:37.107Z,18.00
2019-05-30T11:14:06.316Z,18.10
2019-05-30T11:16:35.567Z,18.20
2019-05-30T11:19:07.541Z,18.30
2019-05-30T11:21:35.809Z,18.30
2019-05-30T11:24:04.996Z,18.40
2019-05-30T11:26:36.462Z,18.50
2019-05-30T11:29:05.862Z,18.40
2019-05-30T11:31:35.746Z,18.40
2019-05-30T11:34:05.033Z,18.50
2019-05-30T11:36:34.247Z,18.60
2019-05-30T11:39:03.618Z,18.70
2019-05-30T11:41:32.829Z,18.70
2019-05-30T11:44:04.190Z,19.00
2019-05-30T11:46:33.090Z,19.10
2019-05-30T11:49:02.413Z,19.10
2019-05-30T11:51:31.626Z,19.00
2019-05-30T11:54:01.234Z,18.90
2019-05-30T11:56:30.484Z,18.90
2019-05-30T11:59:00.171Z,18.90
2019-05-30T12:01:29.738Z,18.80
2019-05-30T12:03:59.005Z,19.10
2019-05-30T12:06:28.231Z,19.30
2019-05-30T12:08:57.461Z,19.20
2019-05-30T12:11:26.659Z,19.10
2019-05-30T12:13:57.328Z,19.00
2019-05-30T12:16:27.175Z,19.00
2019-05-30T12:18:58.088Z,19.10
2019-05-30T12:21:29.811Z,19.30
2019-05-30T12:23:58.364Z,19.40
2019-05-30T12:26:27.586Z,19.40
2019-05-30T12:29:00.173Z,19.30
2019-05-30T12:31:29.449Z,19.30
2019-05-30T12:33:58.821Z,19.40
2019-05-30T12:36:28.397Z,19.60
2019-05-30T12:38:58.432Z,19.60
2019-05-30T12:41:27.779Z,19.60
2019-05-30T12:43:57.024Z,19.70
2019-05-30T12:46:26.279Z,19.70
2019-05-30T12:48:55.487Z,19.90
2019-05-30T12:51:24.673Z,19.80
2019-05-30T12:53:54.334Z,19.80
2019-05-30T12:56:23.662Z,19.80
2019-05-30T12:58:54.569Z,19.70
2019-05-30T13:01:27.384Z,19.70
2019-05-30T13:03:56.877Z,19.70
2019-05-30T13:06:26.277Z,19.70
2019-05-30T13:08:56.791Z,19.70
2019-05-30T13:11:26.279Z,19.80
2019-05-30T13:13:56.597Z,19.70
2019-05-30T13:16:26.005Z,19.70
2019-05-30T13:18:55.923Z,19.80
2019-05-30T13:21:25.270Z,19.80
2019-05-30T13:23:55.473Z,20.10
2019-05-30T13:26:24.758Z,20.10
2019-05-30T13:28:54.014Z,20.10
2019-05-30T13:31:23.275Z,20.00
2019-05-30T13:33:52.848Z,20.00
2019-05-30T13:36:22.058Z,20.10
2019-05-30T13:38:51.256Z,20.10
2019-05-30T13:41:20.542Z,20.10
2019-05-30T13:43:49.762Z,20.10
2019-05-30T13:46:19.069Z,20.10
2019-05-30T13:48:48.325Z,20.10
2019-05-30T13:51:17.636Z,20.10
2019-05-30T13:53:47.412Z,20.10
2019-05-30T13:56:16.638Z,20.00
2019-05-30T13:58:47.191Z,20.00
2019-05-30T14:01:16.487Z,20.00
2019-05-30T14:03:46.639Z,20.00
2019-05-30T14:06:15.868Z,19.90
2019-05-30T14:08:50.539Z,19.90
2019-05-30T14:11:18.335Z,19.90
2019-05-30T14:13:47.585Z,19.90
2019-05-30T14:16:16.805Z,19.90
2019-05-30T14:18:46.472Z,19.80
2019-05-30T14:21:16.949Z,19.80
2019-05-30T14:23:46.365Z,19.80
2019-05-30T14:26:15.588Z,19.90
2019-05-30T14:28:44.912Z,19.90
2019-05-30T14:31:15.270Z,19.90
2019-05-30T14:33:45.491Z,19.90
2019-05-30T14:36:16.789Z,19.70
2019-05-30T14:38:57.872Z,19.70
2019-05-30T14:41:17.231Z,19.70
2019-05-30T14:43:46.492Z,19.70
2019-05-30T14:46:16.691Z,19.70
2019-05-30T14:48:46.358Z,19.70
2019-05-30T14:51:15.577Z,19.70
2019-05-30T14:53:45.274Z,19.70
2019-05-30T14:56:14.508Z,19.70
2019-05-30T14:58:43.732Z,19.70
2019-05-30T15:01:13.398Z,19.80
2019-05-30T15:03:43.561Z,19.80
2019-05-30T15:06:16.360Z,19.90
2019-05-30T15:08:44.856Z,19.90
2019-05-30T15:11:14.106Z,20.00
2019-05-30T15:13:43.438Z,20.10
2019-05-30T15:16:13.003Z,20.20
2019-05-30T15:18:42.477Z,20.20
2019-05-30T15:21:12.486Z,20.20
2019-05-30T15:23:41.853Z,20.30
2019-05-30T15:26:12.111Z,20.30
2019-05-30T15:28:41.472Z,20.40
2019-05-30T15:31:10.798Z,20.50
2019-05-30T15:33:42.242Z,20.60
2019-05-30T15:36:12.756Z,20.70
2019-05-30T15:38:42.235Z,20.70
2019-05-30T15:41:13.556Z,20.60
2019-05-30T15:43:42.818Z,20.70
2019-05-30T15:46:12.039Z,20.70
2019-05-30T15:48:41.231Z,20.70
2019-05-30T15:51:10.777Z,20.60
2019-05-30T15:53:40.205Z,20.70
2019-05-30T15:56:09.499Z,20.60
2019-05-30T15:58:38.711Z,20.70
2019-05-30T16:01:08.329Z,20.70
2019-05-30T16:03:37.617Z,20.60
2019-05-30T16:06:06.808Z,20.60
2019-05-30T16:08:36.118Z,20.70
2019-05-30T16:11:05.317Z,20.70
2019-05-30T16:13:34.559Z,20.60
2019-05-30T16:16:04.177Z,20.50
2019-05-30T16:18:33.465Z,20.60
2019-05-30T16:21:03.208Z,20.50
2019-05-30T16:23:32.906Z,20.50
2019-05-30T16:26:02.268Z,20.50
2019-05-30T16:28:31.881Z,20.40
2019-05-30T16:31:01.106Z,20.30
2019-05-30T16:33:30.333Z,20.30
2019-05-30T16:36:00.935Z,20.30
2019-05-30T16:38:39.271Z,20.20
2019-05-30T16:41:08.601Z,20.20
2019-05-30T16:43:37.860Z,20.30
2019-05-30T16:46:07.074Z,20.30
2019-05-30T16:48:36.370Z,20.20
2019-05-30T16:51:05.625Z,20.20
2019-05-30T16:53:34.849Z,20.20
2019-05-30T16:56:04.136Z,20.20
2019-05-30T16:58:33.379Z,20.10
2019-05-30T17:01:02.763Z,20.20
2019-05-30T17:03:32.236Z,20.10
2019-05-30T17:06:01.471Z,20.00
2019-05-30T17:08:30.753Z,19.90
2019-05-30T17:11:00.090Z,19.90
2019-05-30T17:13:31.342Z,19.80
2019-05-30T17:16:00.413Z,19.80
2019-05-30T17:18:29.693Z,19.70
2019-05-30T17:20:59.997Z,19.70
2019-05-30T17:23:29.268Z,19.60
2019-05-30T17:25:58.509Z,19.60
2019-05-30T17:28:29.296Z,19.60
2019-05-30T17:30:59.362Z,19.50
2019-05-30T17:33:30.318Z,19.50
2019-05-30T17:35:59.703Z,19.40
2019-05-30T17:38:28.964Z,19.40
2019-05-30T17:40:58.201Z,19.30
2019-05-30T17:43:27.407Z,19.40
2019-05-30T17:45:56.857Z,19.40
2019-05-30T17:48:27.627Z,19.30
2019-05-30T17:50:56.981Z,19.30
2019-05-30T17:53:26.323Z,19.30
2019-05-30T17:55:55.715Z,19.30
2019-05-30T17:58:25.954Z,19.20
2019-05-30T18:00:57.268Z,19.20
2019-05-30T18:03:26.465Z,19.20
2019-05-30T18:05:55.853Z,19.10
2019-05-30T18:08:25.074Z,19.10
2019-05-30T18:10:54.356Z,19.00
2019-05-30T18:13:23.601Z,19.00
2019-05-30T18:15:52.888Z,18.90
2019-05-30T18:18:23.633Z,18.90
2019-05-30T18:20:52.882Z,18.90
2019-05-30T18:23:23.393Z,18.90
2019-05-30T18:25:52.806Z,18.90
2019-05-30T18:28:23.420Z,18.90
2019-05-30T18:30:52.904Z,18.90
2019-05-30T18:33:22.201Z,18.90
2019-05-30T18:35:51.445Z,18.90
2019-05-30T18:38:22.176Z,18.90
2019-05-30T18:41:08.153Z,18.90
2019-05-30T18:43:24.718Z,18.90
2019-05-30T18:45:53.901Z,18.90
2019-05-30T18:48:23.359Z,18.80
2019-05-30T18:50:52.625Z,18.80
2019-05-30T18:53:21.859Z,18.80
2019-05-30T18:55:52.108Z,18.80
2019-05-30T18:58:21.467Z,18.80
2019-05-30T19:00:50.818Z,18.70
2019-05-30T19:03:20.053Z,18.70
2019-05-30T19:05:49.408Z,18.70
2019-05-30T19:08:18.658Z,18.70
2019-05-30T19:10:48.004Z,18.70
2019-05-30T19:13:17.225Z,18.70
2019-05-30T19:15:46.713Z,18.60
2019-05-30T19:18:15.974Z,18.60
2019-05-30T19:20:45.322Z,18.60
2019-05-30T19:23:14.612Z,18.60
2019-05-30T19:25:44.150Z,18.60
2019-05-30T19:28:13.439Z,18.60
2019-05-30T19:30:42.935Z,18.60
2019-05-30T19:33:14.430Z,18.70
2019-05-30T19:35:43.656Z,18.60
2019-05-30T19:38:14.388Z,18.60
2019-05-30T19:40:43.714Z,18.50
2019-05-30T19:43:13.026Z,18.50
2019-05-30T19:45:42.273Z,18.40
2019-05-30T19:48:13.078Z,18.40
2019-05-30T19:50:42.397Z,18.50
2019-05-30T19:53:11.760Z,18.40
2019-05-30T19:55:41.049Z,18.50
2019-05-30T19:58:10.278Z,18.40
2019-05-30T20:00:57.576Z,18.40
2019-05-30T20:03:10.514Z,18.40
2019-05-30T20:05:40.895Z,18.40
2019-05-30T20:08:10.774Z,18.30
2019-05-30T20:10:41.230Z,18.30
2019-05-30T20:13:10.729Z,18.30
2019-05-30T20:15:39.997Z,18.40
2019-05-30T20:18:09.335Z,18.30
2019-05-30T20:20:53.914Z,18.40
2019-05-30T20:23:13.882Z,18.40
2019-05-30T20:25:46.016Z,18.40
2019-05-30T20:28:15.349Z,18.30
2019-05-30T20:30:44.614Z,18.30
2019-05-30T20:33:16.908Z,18.30
2019-05-30T20:35:46.989Z,18.40
2019-05-30T20:38:16.592Z,18.40
2019-05-30T20:40:48.339Z,18.30
2019-05-30T20:43:17.734Z,18.30
2019-05-30T20:45:49.639Z,18.30
2019-05-30T20:48:18.133Z,18.30
2019-05-30T20:50:47.514Z,18.30
2019-05-30T20:53:20.531Z,18.30
2019-05-30T20:55:51.163Z,18.30
2019-05-30T20:58:20.413Z,18.30
2019-05-30T21:00:52.373Z,18.30
2019-05-30T21:03:21.917Z,18.30
2019-05-30T21:05:52.747Z,18.30
2019-05-30T21:08:23.751Z,18.30
2019-05-30T21:10:53.675Z,18.30
2019-05-30T21:13:22.916Z,18.20
2019-05-30T21:15:55.349Z,18.20
2019-05-30T21:18:25.446Z,18.20
2019-05-30T21:20:55.084Z,18.20
2019-05-30T21:23:24.551Z,18.20
2019-05-30T21:25:53.910Z,18.20
2019-05-30T21:28:24.575Z,18.20
2019-05-30T21:30:54.286Z,18.20
2019-05-30T21:33:23.665Z,18.20
2019-05-30T21:35:53.202Z,18.20
2019-05-30T21:38:22.506Z,18.20
2019-05-30T21:40:51.912Z,18.20
2019-05-30T21:43:21.415Z,18.20
2019-05-30T21:45:50.714Z,18.20
2019-05-30T21:48:19.959Z,18.20
2019-05-30T21:50:50.225Z,18.20
2019-05-30T21:53:19.735Z,18.10
2019-05-30T21:55:50.116Z,18.10
2019-05-30T21:58:19.893Z,18.10
2019-05-30T22:01:18.645Z,18.10
2019-05-30T22:03:48.735Z,18.10
2019-05-30T22:06:18.229Z,18.10
2019-05-30T22:08:47.831Z,18.10
2019-05-30T22:11:17.435Z,18.00
2019-05-30T22:13:49.661Z,18.00
2019-05-30T22:16:19.561Z,18.00
2019-05-30T22:18:50.005Z,18.00
2019-05-30T22:21:19.560Z,18.00
2019-05-30T22:23:48.852Z,18.00
2019-05-30T22:26:18.208Z,18.00
2019-05-30T22:28:50.504Z,18.00
2019-05-30T22:31:19.433Z,18.00
2019-05-30T22:33:48.808Z,18.00
2019-05-30T22:36:18.043Z,18.00
2019-05-30T22:38:47.440Z,18.00
2019-05-30T22:41:16.799Z,18.00
2019-05-30T22:43:46.331Z,18.00
2019-05-30T22:46:15.768Z,17.90
2019-05-30T22:48:46.383Z,17.90
2019-05-30T22:51:15.838Z,17.90
2019-05-30T22:53:45.118Z,17.90
2019-05-30T22:56:14.606Z,17.90
2019-05-30T22:58:43.892Z,17.90
2019-05-30T23:01:13.308Z,17.90
2019-05-30T23:03:42.735Z,17.80
2019-05-30T23:06:13.840Z,17.90
2019-05-30T23:08:44.070Z,17.80
2019-05-30T23:11:14.014Z,17.80
2019-05-30T23:13:43.466Z,17.80
2019-05-30T23:16:12.790Z,17.80
2019-05-30T23:18:42.159Z,17.80
2019-05-30T23:21:13.741Z,17.70
2019-05-30T23:23:43.126Z,17.70
2019-05-30T23:26:12.649Z,17.70
2019-05-30T23:28:42.032Z,17.70
2019-05-30T23:31:11.470Z,17.70
2019-05-30T23:33:40.846Z,17.70
2019-05-30T23:36:10.238Z,17.70
2019-05-30T23:38:39.640Z,17.60
2019-05-30T23:41:09.009Z,17.70
2019-05-30T23:43:38.309Z,17.60
2019-05-30T23:46:07.730Z,17.50
2019-05-30T23:48:37.074Z,17.50
2019-05-30T23:51:06.437Z,17.60
2019-05-30T23:53:35.820Z,17.60
2019-05-30T23:56:05.156Z,17.50
2019-05-30T23:58:34.587Z,17.50
